Fort Hill, Virginia
Current Conditions -  °F | °C
As of 6:54 PM on Saturday 22 Nov 2014 (Local Time) from KLYH Reporting Station
Clear Clear  
Wind Chill: 33°   Ceiling: Unl
Heat Index: 33°   Visibility: NA
Dew Point: 18°   Wind: 0mph
Humidity: 54%   Direction: NA
Pressure: 30.33"   Gusts: NA
Location:  37.3516°N, 79.2171°W
Report Text: KLYH 222354Z 00000KT CLR 01/M08 A3033 RMK AO2 SLP281 T00061078 10094 20000 58009 $
Loading
Personal Weather Stations






























Interactive Weather Map New forecast layout! Learn more

10-Day Weather Forecast

Advertisements
Track Severe Weather on mobile